createdAt,value
2023-05-19T00:02:39.870Z,101684.20
2023-05-19T00:08:04.540Z,101684.80
2023-05-19T00:13:09.556Z,101682.40
2023-05-19T00:18:21.128Z,101684.60
2023-05-19T00:23:29.034Z,101680.20
2023-05-19T00:28:33.156Z,101677.80
2023-05-19T00:33:37.175Z,101675.00
2023-05-19T00:39:03.017Z,101673.60
2023-05-19T00:44:32.635Z,101672.20
2023-05-19T00:50:00.153Z,101658.80
2023-05-19T00:56:33.232Z,101657.60
2023-05-19T01:02:03.388Z,101652.00
2023-05-19T01:07:08.020Z,101650.80
2023-05-19T01:12:37.569Z,101653.20
2023-05-19T01:18:13.017Z,101653.60
2023-05-19T01:23:57.611Z,101654.40
2023-05-19T01:29:41.539Z,101654.80
2023-05-19T01:36:08.664Z,101657.60
2023-05-19T01:41:38.588Z,101651.00
2023-05-19T01:47:23.190Z,101649.60
2023-05-19T01:52:27.006Z,101647.40
2023-05-19T01:58:17.227Z,101643.00
2023-05-19T02:03:35.173Z,101651.80
2023-05-19T02:15:39.665Z,101654.20
2023-05-19T02:21:34.684Z,101660.60
2023-05-19T02:26:38.559Z,101657.60
2023-05-19T02:32:08.330Z,101660.80
2023-05-19T02:37:16.779Z,101664.60
2023-05-19T02:42:21.542Z,101664.80
2023-05-19T02:48:27.712Z,101660.20
2023-05-19T02:53:57.052Z,101658.00
2023-05-19T02:59:03.133Z,101659.00
2023-05-19T03:04:32.449Z,101661.40
2023-05-19T03:10:59.217Z,101661.40
2023-05-19T03:16:30.067Z,101659.20
2023-05-19T03:22:50.565Z,101659.40
2023-05-19T03:28:19.444Z,101656.00
2023-05-19T03:34:24.847Z,101659.20
2023-05-19T03:40:45.417Z,101659.60
2023-05-19T03:45:49.414Z,101655.00
2023-05-19T03:51:49.811Z,101651.80
2023-05-19T03:57:18.828Z,101658.60
2023-05-19T04:03:44.269Z,101654.20
2023-05-19T04:08:48.026Z,101657.40
2023-05-19T04:13:51.613Z,101655.20
2023-05-19T04:19:00.442Z,101654.60
2023-05-19T04:32:29.749Z,101654.80
2023-05-19T04:38:59.175Z,101660.60
2023-05-19T04:48:27.901Z,101668.60
2023-05-19T04:53:56.918Z,101665.80
2023-05-19T04:59:02.090Z,101669.60
2023-05-19T05:04:08.572Z,101675.20
2023-05-19T05:09:18.956Z,101675.60
2023-05-19T05:15:13.459Z,101681.40
2023-05-19T05:20:39.916Z,101678.20
2023-05-19T05:27:01.756Z,101678.60
2023-05-19T05:32:11.574Z,101674.40
2023-05-19T05:37:44.340Z,101678.00
2023-05-19T05:43:13.988Z,101677.80
2023-05-19T05:48:18.410Z,101680.20
2023-05-19T05:54:38.956Z,101675.40
2023-05-19T05:59:43.595Z,101682.20
2023-05-19T06:05:25.551Z,101681.40
2023-05-19T06:10:29.606Z,101681.40
2023-05-19T06:15:55.452Z,101691.40
2023-05-19T06:21:25.150Z,101686.40
2023-05-19T06:26:47.337Z,101685.60
2023-05-19T06:32:16.400Z,101687.20
2023-05-19T06:45:17.445Z,101687.80
2023-05-19T06:50:46.521Z,101688.80
2023-05-19T06:56:41.266Z,101687.40
2023-05-19T07:01:48.005Z,101689.20
2023-05-19T07:07:17.097Z,101693.00
2023-05-19T07:19:11.350Z,101695.20
2023-05-19T07:25:07.625Z,101704.40
2023-05-19T07:30:18.506Z,101708.40
2023-05-19T07:35:47.813Z,101709.00
2023-05-19T07:41:43.483Z,101711.60
2023-05-19T07:46:47.499Z,101713.00
2023-05-19T07:51:51.401Z,101719.80
2023-05-19T07:57:20.245Z,101727.40
2023-05-19T08:02:42.324Z,101723.40
2023-05-19T08:08:37.306Z,101725.00
2023-05-19T08:13:58.626Z,101720.20
2023-05-19T08:19:05.611Z,101716.80
2023-05-19T08:24:34.539Z,101715.20
2023-05-19T08:30:03.464Z,101713.40
2023-05-19T08:35:35.342Z,101709.20
2023-05-19T08:42:04.075Z,101714.80
2023-05-19T08:47:13.719Z,101712.80
2023-05-19T08:52:52.829Z,101712.20
2023-05-19T08:58:51.844Z,101716.60
2023-05-19T09:11:00.968Z,101718.60
2023-05-19T09:16:48.698Z,101716.20
2023-05-19T09:22:03.908Z,101716.00
2023-05-19T09:27:24.491Z,101714.60
2023-05-19T09:32:28.658Z,101715.40
2023-05-19T09:37:32.687Z,101714.80
2023-05-19T09:43:53.605Z,101717.20
2023-05-19T09:49:30.302Z,101717.00
2023-05-19T09:54:35.342Z,101709.40
2023-05-19T10:00:31.846Z,101708.40
2023-05-19T10:05:36.793Z,101706.80
2023-05-19T10:11:32.679Z,101704.60
2023-05-19T10:17:12.854Z,101707.00
2023-05-19T10:22:44.220Z,101711.40
2023-05-19T10:28:27.231Z,101704.40
2023-05-19T10:34:22.431Z,101713.40
2023-05-19T10:39:38.173Z,101715.80
2023-05-19T10:45:37.038Z,101709.60
2023-05-19T10:50:40.964Z,101706.80
2023-05-19T10:56:10.968Z,101715.20
2023-05-19T11:01:39.027Z,101715.20
2023-05-19T11:14:01.023Z,101723.40
2023-05-19T11:19:07.962Z,101724.20
2023-05-19T11:24:40.345Z,101715.20
2023-05-19T11:31:10.269Z,101718.40
2023-05-19T11:36:17.258Z,101701.60
2023-05-19T11:41:47.290Z,101695.00
2023-05-19T11:48:01.178Z,101699.40
2023-05-19T11:53:06.824Z,101709.40
2023-05-19T11:58:38.303Z,101719.00
2023-05-19T12:04:50.267Z,101719.80
2023-05-19T12:21:19.435Z,101713.80
2023-05-19T12:27:39.677Z,101712.00
2023-05-19T12:33:10.146Z,101716.20
2023-05-19T12:38:16.594Z,101722.80
2023-05-19T12:44:36.749Z,101722.00
2023-05-19T12:50:01.527Z,101722.60
2023-05-19T12:55:12.760Z,101721.40
2023-05-19T13:00:48.405Z,101722.80
2023-05-19T13:06:12.413Z,101730.80
2023-05-19T13:11:44.070Z,101722.20
2023-05-19T13:16:52.069Z,101718.40
2023-05-19T13:22:22.117Z,101701.60
2023-05-19T13:41:43.411Z,101680.80
2023-05-19T13:46:49.249Z,101680.60
2023-05-19T14:08:01.387Z,101698.60
2023-05-19T14:13:30.403Z,101702.20
2023-05-19T14:18:29.112Z,101699.20
2023-05-19T14:24:22.870Z,101683.60
2023-05-19T14:29:27.441Z,101675.40
2023-05-19T14:43:08.666Z,101659.60
2023-05-19T14:55:13.720Z,101667.60
2023-05-19T15:14:13.332Z,101674.80
2023-05-19T15:19:17.316Z,101673.20
2023-05-19T15:24:21.133Z,101664.60
2023-05-19T15:37:12.298Z,101649.20
2023-05-19T15:58:04.433Z,101646.20
2023-05-19T16:03:08.749Z,101649.20
2023-05-19T16:13:18.036Z,101646.60
2023-05-19T16:18:21.818Z,101642.20
2023-05-19T16:23:45.140Z,101649.20
2023-05-19T16:28:49.270Z,101646.80
2023-05-19T16:33:53.636Z,101644.80
2023-05-19T16:38:57.615Z,101650.20
2023-05-19T16:44:02.987Z,101650.00
2023-05-19T16:49:57.429Z,101652.20
2023-05-19T16:55:01.364Z,101649.60
2023-05-19T17:00:06.155Z,101648.80
2023-05-19T17:05:54.546Z,101646.40
2023-05-19T17:11:50.413Z,101646.80
2023-05-19T17:23:50.439Z,101641.80
2023-05-19T17:28:58.503Z,101634.60
2023-05-19T17:34:02.749Z,101642.80
2023-05-19T17:39:35.648Z,101641.00
2023-05-19T17:44:41.883Z,101643.80
2023-05-19T17:56:54.803Z,101647.60
2023-05-19T18:09:10.982Z,101651.20
2023-05-19T18:14:15.391Z,101647.40
2023-05-19T18:19:20.445Z,101648.40
2023-05-19T18:24:24.625Z,101642.80
2023-05-19T18:29:28.788Z,101643.20
2023-05-19T18:34:33.797Z,101646.40
2023-05-19T18:39:38.643Z,101654.20
2023-05-19T18:44:47.654Z,101656.40
2023-05-19T18:49:52.374Z,101656.20
2023-05-19T18:54:56.727Z,101658.40
2023-05-19T19:00:01.220Z,101659.60
2023-05-19T19:05:10.191Z,101657.80
2023-05-19T19:10:15.765Z,101658.80
2023-05-19T19:15:21.776Z,101657.60
2023-05-19T19:20:27.945Z,101664.40
2023-05-19T19:25:37.410Z,101666.80
2023-05-19T19:30:42.627Z,101665.00
2023-05-19T19:35:49.686Z,101671.60
2023-05-19T19:40:56.648Z,101676.20
2023-05-19T19:46:06.003Z,101675.80
2023-05-19T19:51:14.705Z,101676.60
2023-05-19T19:56:20.391Z,101673.00
2023-05-19T20:01:28.143Z,101675.60
2023-05-19T20:06:32.740Z,101681.20
2023-05-19T20:12:27.419Z,101684.40
2023-05-19T20:17:35.693Z,101678.20
2023-05-19T20:22:45.001Z,101677.40
2023-05-19T20:28:46.191Z,101674.60
2023-05-19T20:33:54.114Z,101681.20
2023-05-19T20:38:58.488Z,101682.20
2023-05-19T20:44:06.791Z,101684.40
2023-05-19T20:49:10.964Z,101684.20
2023-05-19T20:54:40.112Z,101677.40
2023-05-19T20:59:58.618Z,101671.40
2023-05-19T21:05:57.707Z,101669.60
2023-05-19T21:11:54.038Z,101665.60
2023-05-19T21:24:19.166Z,101666.20
2023-05-19T21:29:23.209Z,101669.60
2023-05-19T21:35:17.700Z,101664.40
2023-05-19T21:40:22.174Z,101668.00
2023-05-19T22:00:13.385Z,101670.20
2023-05-19T22:06:02.166Z,101673.80
2023-05-19T22:11:40.701Z,101671.60
2023-05-19T22:16:48.063Z,101668.80
2023-05-19T22:22:01.921Z,101661.60
2023-05-19T22:27:10.453Z,101658.60
2023-05-19T22:32:17.220Z,101665.00
2023-05-19T22:37:24.250Z,101666.80
2023-05-19T22:42:28.329Z,101669.00
2023-05-19T22:47:32.258Z,101670.80
2023-05-19T23:06:56.291Z,101671.60
2023-05-19T23:12:00.249Z,101669.00
2023-05-19T23:17:04.513Z,101666.40
2023-05-19T23:22:08.918Z,101662.20
2023-05-19T23:27:13.879Z,101667.40
2023-05-19T23:32:43.094Z,101660.60
2023-05-19T23:37:46.945Z,101656.60
2023-05-19T23:43:15.463Z,101660.40
2023-05-19T23:48:19.609Z,101659.20
2023-05-19T23:53:23.340Z,101665.40
2023-05-19T23:58:27.411Z,101664.40
